F/V Lanesera — FOSC — position and weather

sailwx.info

Track history (hours):
 
Tides and Currents Weather Stations Pressure Air Temp Water Temp Dewpoint Dewpoint Depression Visibility Wind Speed Wind Dir Waves Ship Positions

F/V Lanesera

Last reported at 2017-Nov-09 03:58 UTC. Time now 2017-Nov-20 13:22 UTC.
Position S 22°11' E 166°07'.
Warning: this ship's position is 11 days out of date.

Length 20 m; draft 3 m.

Type: Fishing. MMSI: 540004100.

Date/timePositionNaut miles runAvg speedWind from/ knotsBaromVisibWave heightAir tempDewpointWater temp
2017-Nov-09 03:58S 22°11' E 166°07'4 8.4
2017-Nov-09 03:30S 22°12' E 166°11'4 8.4
2017-Nov-09 03:00S 22°13' E 166°16'4 8.1
2017-Nov-09 02:31S 22°14' E 166°20'4 7.8
2017-Nov-09 02:00S 22°15' E 166°24'2 3.3
2017-Nov-09 01:31S 22°16' E 166°25'0 0.0
2017-Nov-09 01:00S 22°16' E 166°25'0 0.0
2017-Nov-09 00:30S 22°16' E 166°25'0 0.0
2017-Nov-09 00:01S 22°16' E 166°25'0 0.0
2017-Nov-08 23:31S 22°16' E 166°25'0 0.0
2017-Nov-08 23:01S 22°16' E 166°25'0 0.0
2017-Nov-08 22:31S 22°16' E 166°25'2 0.1
2017-Nov-08 03:34S 22°15' E 166°24'0 6.7
2017-Nov-08 03:31S 22°15' E 166°24'2 4.6
2017-Nov-08 03:01S 22°17' E 166°25'1 1.5
2017-Nov-08 02:17S 22°16' E 166°26'0 0.0
2017-Nov-07 22:58S 22°16' E 166°26'0 0.0
2017-Nov-07 21:54S 22°16' E 166°26'0 0.8
2017-Nov-07 21:31S 22°17' E 166°26'3 5.6
2017-Nov-07 21:01S 22°16' E 166°23'2 3.5
2017-Nov-07 20:31S 22°16' E 166°25'1 0.0
2017-Nov-05 21:48S 22°16' E 166°25'0 0.0
2017-Nov-05 21:30S 22°16' E 166°25'0 0.0
2017-Nov-05 21:00S 22°16' E 166°25'0 0.0
2017-Nov-05 20:30S 22°16' E 166°25'0 0.0
2017-Nov-03 21:02S 22°16' E 166°25'0 0.0
2017-Nov-03 21:00S 22°16' E 166°25'3 6.1
2017-Nov-03 20:30S 22°15' E 166°23'4 7.8
2017-Nov-03 20:00S 22°14' E 166°18'3 6.7
2017-Nov-03 19:30S 22°13' E 166°15'4 7.1
2017-Nov-03 18:58S 22°12' E 166°11'  
Track history (hours):
 
Tides and Currents Weather Stations Pressure Air Temp Water Temp Dewpoint Dewpoint Depression Visibility Wind Speed Wind Dir Waves Ship Positions

F/V Lanesera

Last reported at 2017-Nov-09 03:58 UTC. Time now 2017-Nov-20 13:22 UTC.
Position S 22°11' E 166°07'.
Warning: this ship's position is 11 days out of date.

Length 20 m; draft 3 m.

Type: Fishing. MMSI: 540004100.

Date/timePositionNaut miles runAvg speedWind from/ knotsBaromVisibWave heightAir tempDewpointWater temp
2017-Nov-09 03:58S 22°11' E 166°07'4 8.4
2017-Nov-09 03:30S 22°12' E 166°11'4 8.4
2017-Nov-09 03:00S 22°13' E 166°16'4 8.1
2017-Nov-09 02:31S 22°14' E 166°20'4 7.8
2017-Nov-09 02:00S 22°15' E 166°24'2 3.3
2017-Nov-09 01:31S 22°16' E 166°25'0 0.0
2017-Nov-09 01:00S 22°16' E 166°25'0 0.0
2017-Nov-09 00:30S 22°16' E 166°25'0 0.0
2017-Nov-09 00:01S 22°16' E 166°25'0 0.0
2017-Nov-08 23:31S 22°16' E 166°25'0 0.0
2017-Nov-08 23:01S 22°16' E 166°25'0 0.0
2017-Nov-08 22:31S 22°16' E 166°25'2 0.1
2017-Nov-08 03:34S 22°15' E 166°24'0 6.7
2017-Nov-08 03:31S 22°15' E 166°24'2 4.6
2017-Nov-08 03:01S 22°17' E 166°25'1 1.5
2017-Nov-08 02:17S 22°16' E 166°26'0 0.0
2017-Nov-07 22:58S 22°16' E 166°26'0 0.0
2017-Nov-07 21:54S 22°16' E 166°26'0 0.8
2017-Nov-07 21:31S 22°17' E 166°26'3 5.6
2017-Nov-07 21:01S 22°16' E 166°23'2 3.5
2017-Nov-07 20:31S 22°16' E 166°25'1 0.0
2017-Nov-05 21:48S 22°16' E 166°25'0 0.0
2017-Nov-05 21:30S 22°16' E 166°25'0 0.0
2017-Nov-05 21:00S 22°16' E 166°25'0 0.0
2017-Nov-05 20:30S 22°16' E 166°25'0 0.0
2017-Nov-03 21:02S 22°16' E 166°25'0 0.0
2017-Nov-03 21:00S 22°16' E 166°25'3 6.1
2017-Nov-03 20:30S 22°15' E 166°23'4 7.8
2017-Nov-03 20:00S 22°14' E 166°18'3 6.7
2017-Nov-03 19:30S 22°13' E 166°15'4 7.1
2017-Nov-03 18:58S 22°12' E 166°11'  

Dump ship's entire track history